This is the latest recevied weather packets stored in our database for station/object KD0KHX-10. If no packets are shown the sender has not sent any weather packets the latest 10 day(s).
| Time | Temp. | Humidity | Pressure | Rain* | Wind** | Luminosity | Snow |
|---|---|---|---|---|---|---|---|
| 1777308137 | 11.11° C | 70% | 1004.6 hPa | 0 mm | - | - | - |
| 1777307703 | 10.56° C | 74% | 1004.7 hPa | 0 mm | - | - | - |
| 1777307403 | 10° C | 73% | 1004.6 hPa | 0 mm | - | - | - |
| 1777307103 | 10° C | 74% | 1004.5 hPa | 0 mm | - | - | - |
| 1777306803 | 10° C | 74% | 1004.6 hPa | 0 mm | - | - | - |
| 1777306773 | 10° C | 74% | 1004.6 hPa | 0 mm | - | - | - |
| 1777306203 | 8.89° C | 76% | 1004.7 hPa | 0 mm | - | - | - |
| 1777306038 | 8.89° C | 76% | 1004.7 hPa | 0 mm | - | - | - |
| 1777305603 | 9.44° C | 76% | 1004.4 hPa | 0 mm | - | - | - |
| 1777305573 | 9.44° C | 76% | 1004.4 hPa | 0 mm | - | - | - |
| 1777305137 | 10° C | 74% | 1004.3 hPa | 0 mm | - | - | - |
| 1777304703 | 10° C | 76% | 1004 hPa | 0 mm | - | - | - |
| 1777304403 | 9.44° C | 77% | 1004 hPa | 0 mm | - | - | - |
| 1777304373 | 9.44° C | 77% | 1004 hPa | 0 mm | - | - | - |
| 1777303937 | 9.44° C | 79% | 1003.8 hPa | 0 mm | - | - | - |
| 1777303638 | 9.44° C | 79% | 1003.7 hPa | 0 mm | - | - | - |
| 1777303203 | 9.44° C | 79% | 1003.6 hPa | 0 mm | - | - | - |
| 1777302903 | 9.44° C | 79% | 1003.5 hPa | 0 mm | - | - | - |
| 1777302603 | 9.44° C | 78% | 1003.2 hPa | 0 mm | - | - | - |
| 1777302437 | 9.44° C | 77% | 1003.2 hPa | 0 mm | - | - | - |
| 1777302138 | 8.89° C | 76% | 1003.1 hPa | 0 mm | - | - | - |
| 1777301837 | 8.33° C | 77% | 1003.1 hPa | 0 mm | - | - | - |
| 1777301538 | 8.33° C | 77% | 1003 hPa | 0 mm | - | - | - |
| 1777301103 | 8.89° C | 74% | 1003 hPa | 0 mm | - | - | - |
| 1777300803 | 8.89° C | 71% | 1002.8 hPa | 0 mm | - | - | - |
* Rain latest hour (hover to see other rain measurements)
** Current wind speed in m/s (hover to see current wind gust speed)